sensor_id;sensor_type;location;lat;lon;timestamp;P1;durP1;ratioP1;P2;durP2;ratioP2
22270;SDS011;11304;53.520;10.104;2022-10-15T00:00:54;12.93;;;10.43;;
22270;SDS011;11304;53.520;10.104;2022-10-15T00:03:40;11.10;;;9.50;;
22270;SDS011;11304;53.520;10.104;2022-10-15T00:06:08;10.70;;;9.45;;
22270;SDS011;11304;53.520;10.104;2022-10-15T00:08:38;11.93;;;9.68;;
22270;SDS011;11304;53.520;10.104;2022-10-15T00:11:10;14.48;;;11.38;;
22270;SDS011;11304;53.520;10.104;2022-10-15T00:13:46;13.88;;;11.43;;
22270;SDS011;11304;53.520;10.104;2022-10-15T00:16:16;12.80;;;11.32;;
22270;SDS011;11304;53.520;10.104;2022-10-15T00:18:44;14.75;;;11.57;;
22270;SDS011;11304;53.520;10.104;2022-10-15T00:21:10;12.38;;;10.82;;
22270;SDS011;11304;53.520;10.104;2022-10-15T00:26:09;15.23;;;12.27;;
22270;SDS011;11304;53.520;10.104;2022-10-15T00:28:36;15.40;;;12.68;;
22270;SDS011;11304;53.520;10.104;2022-10-15T00:31:07;12.80;;;11.50;;
22270;SDS011;11304;53.520;10.104;2022-10-15T00:33:34;15.25;;;12.88;;
22270;SDS011;11304;53.520;10.104;2022-10-15T00:36:01;18.45;;;13.63;;
22270;SDS011;11304;53.520;10.104;2022-10-15T00:38:31;16.45;;;12.00;;
22270;SDS011;11304;53.520;10.104;2022-10-15T00:40:58;16.90;;;12.80;;
22270;SDS011;11304;53.520;10.104;2022-10-15T00:46:03;20.33;;;14.02;;
22270;SDS011;11304;53.520;10.104;2022-10-15T00:48:30;13.25;;;11.88;;
22270;SDS011;11304;53.520;10.104;2022-10-15T00:50:57;17.85;;;14.93;;
22270;SDS011;11304;53.520;10.104;2022-10-15T00:53:28;19.70;;;14.38;;
22270;SDS011;11304;53.520;10.104;2022-10-15T00:55:53;15.70;;;13.60;;
22270;SDS011;11304;53.520;10.104;2022-10-15T00:58:19;15.85;;;12.63;;
22270;SDS011;11304;53.520;10.104;2022-10-15T01:00:52;16.85;;;13.88;;
22270;SDS011;11304;53.520;10.104;2022-10-15T01:03:19;14.60;;;13.10;;
22270;SDS011;11304;53.520;10.104;2022-10-15T01:05:46;23.08;;;15.57;;
22270;SDS011;11304;53.520;10.104;2022-10-15T01:08:14;17.02;;;13.75;;
22270;SDS011;11304;53.520;10.104;2022-10-15T01:10:48;17.95;;;15.02;;
22270;SDS011;11304;53.520;10.104;2022-10-15T01:16:48;19.17;;;14.52;;
22270;SDS011;11304;53.520;10.104;2022-10-15T01:21:51;18.95;;;15.60;;
22270;SDS011;11304;53.520;10.104;2022-10-15T01:35:49;19.67;;;17.40;;
22270;SDS011;11304;53.520;10.104;2022-10-15T01:43:56;24.30;;;20.88;;
22270;SDS011;11304;53.520;10.104;2022-10-15T01:46:31;26.75;;;21.67;;
22270;SDS011;11304;53.520;10.104;2022-10-15T01:49:02;30.00;;;22.92;;
22270;SDS011;11304;53.520;10.104;2022-10-15T01:51:29;25.67;;;21.92;;
22270;SDS011;11304;53.520;10.104;2022-10-15T01:53:58;29.95;;;22.70;;
22270;SDS011;11304;53.520;10.104;2022-10-15T01:56:25;28.17;;;23.02;;
22270;SDS011;11304;53.520;10.104;2022-10-15T01:58:53;25.73;;;22.10;;
22270;SDS011;11304;53.520;10.104;2022-10-15T02:01:20;26.67;;;22.98;;
22270;SDS011;11304;53.520;10.104;2022-10-15T02:03:47;27.48;;;22.67;;
22270;SDS011;11304;53.520;10.104;2022-10-15T02:06:16;32.15;;;24.00;;
22270;SDS011;11304;53.520;10.104;2022-10-15T02:09:14;25.92;;;22.00;;
22270;SDS011;11304;53.520;10.104;2022-10-15T02:17:24;30.50;;;23.23;;
22270;SDS011;11304;53.520;10.104;2022-10-15T02:20:22;30.67;;;24.00;;
22270;SDS011;11304;53.520;10.104;2022-10-15T02:22:58;29.63;;;24.05;;
22270;SDS011;11304;53.520;10.104;2022-10-15T02:25:32;29.52;;;24.17;;
22270;SDS011;11304;53.520;10.104;2022-10-15T02:27:59;30.70;;;24.40;;
22270;SDS011;11304;53.520;10.104;2022-10-15T02:30:27;35.23;;;25.53;;
22270;SDS011;11304;53.520;10.104;2022-10-15T02:32:55;29.88;;;25.90;;
22270;SDS011;11304;53.520;10.104;2022-10-15T02:35:23;33.10;;;26.58;;
22270;SDS011;11304;53.520;10.104;2022-10-15T02:37:50;33.45;;;26.25;;
22270;SDS011;11304;53.520;10.104;2022-10-15T02:40:20;30.40;;;25.65;;
22270;SDS011;11304;53.520;10.104;2022-10-15T02:42:49;31.90;;;26.00;;
22270;SDS011;11304;53.520;10.104;2022-10-15T02:45:16;32.85;;;25.90;;
22270;SDS011;11304;53.520;10.104;2022-10-15T02:47:41;30.00;;;25.15;;
22270;SDS011;11304;53.520;10.104;2022-10-15T02:50:07;33.90;;;26.30;;
22270;SDS011;11304;53.520;10.104;2022-10-15T02:52:33;32.00;;;24.45;;
22270;SDS011;11304;53.520;10.104;2022-10-15T02:54:59;28.98;;;23.58;;
22270;SDS011;11304;53.520;10.104;2022-10-15T02:57:24;29.98;;;24.67;;
22270;SDS011;11304;53.520;10.104;2022-10-15T02:59:50;34.22;;;25.08;;
22270;SDS011;11304;53.520;10.104;2022-10-15T03:02:16;29.17;;;23.83;;
22270;SDS011;11304;53.520;10.104;2022-10-15T03:04:41;31.70;;;24.10;;
22270;SDS011;11304;53.520;10.104;2022-10-15T03:07:07;30.02;;;23.45;;
22270;SDS011;11304;53.520;10.104;2022-10-15T03:09:33;31.33;;;25.20;;
22270;SDS011;11304;53.520;10.104;2022-10-15T03:11:58;31.15;;;23.45;;
22270;SDS011;11304;53.520;10.104;2022-10-15T03:14:24;29.50;;;24.52;;
22270;SDS011;11304;53.520;10.104;2022-10-15T03:16:50;33.97;;;25.67;;
22270;SDS011;11304;53.520;10.104;2022-10-15T03:19:15;34.50;;;25.00;;
22270;SDS011;11304;53.520;10.104;2022-10-15T03:21:41;32.50;;;24.38;;
22270;SDS011;11304;53.520;10.104;2022-10-15T03:24:07;32.42;;;23.55;;
22270;SDS011;11304;53.520;10.104;2022-10-15T03:26:33;34.15;;;25.15;;
22270;SDS011;11304;53.520;10.104;2022-10-15T03:28:58;32.88;;;23.45;;
22270;SDS011;11304;53.520;10.104;2022-10-15T03:31:24;29.38;;;22.17;;
22270;SDS011;11304;53.520;10.104;2022-10-15T03:33:50;30.02;;;21.70;;
22270;SDS011;11304;53.520;10.104;2022-10-15T03:36:15;31.08;;;22.48;;
22270;SDS011;11304;53.520;10.104;2022-10-15T03:38:41;31.95;;;21.10;;
22270;SDS011;11304;53.520;10.104;2022-10-15T03:41:07;25.92;;;19.30;;
22270;SDS011;11304;53.520;10.104;2022-10-15T03:43:32;30.02;;;21.63;;
22270;SDS011;11304;53.520;10.104;2022-10-15T03:46:02;31.27;;;21.77;;
22270;SDS011;11304;53.520;10.104;2022-10-15T03:48:30;27.45;;;20.58;;
22270;SDS011;11304;53.520;10.104;2022-10-15T03:50:56;28.70;;;18.50;;
22270;SDS011;11304;53.520;10.104;2022-10-15T03:53:22;27.35;;;17.40;;
22270;SDS011;11304;53.520;10.104;2022-10-15T03:55:48;20.25;;;13.55;;
22270;SDS011;11304;53.520;10.104;2022-10-15T03:58:14;20.17;;;13.90;;
22270;SDS011;11304;53.520;10.104;2022-10-15T04:00:40;23.83;;;15.50;;
22270;SDS011;11304;53.520;10.104;2022-10-15T04:03:07;22.63;;;14.30;;
22270;SDS011;11304;53.520;10.104;2022-10-15T04:05:32;22.13;;;15.63;;
22270;SDS011;11304;53.520;10.104;2022-10-15T04:07:58;21.23;;;15.02;;
22270;SDS011;11304;53.520;10.104;2022-10-15T04:10:24;20.20;;;15.52;;
22270;SDS011;11304;53.520;10.104;2022-10-15T04:12:50;19.17;;;14.00;;
22270;SDS011;11304;53.520;10.104;2022-10-15T04:15:16;22.55;;;15.68;;
22270;SDS011;11304;53.520;10.104;2022-10-15T04:17:42;21.83;;;14.98;;
22270;SDS011;11304;53.520;10.104;2022-10-15T04:20:08;21.42;;;15.18;;
22270;SDS011;11304;53.520;10.104;2022-10-15T04:22:35;25.30;;;16.30;;
22270;SDS011;11304;53.520;10.104;2022-10-15T04:25:01;23.10;;;16.45;;
22270;SDS011;11304;53.520;10.104;2022-10-15T04:27:28;22.77;;;15.63;;
22270;SDS011;11304;53.520;10.104;2022-10-15T04:29:53;22.77;;;16.55;;
22270;SDS011;11304;53.520;10.104;2022-10-15T04:32:19;21.83;;;15.77;;
22270;SDS011;11304;53.520;10.104;2022-10-15T04:34:45;24.75;;;16.52;;
22270;SDS011;11304;53.520;10.104;2022-10-15T04:37:11;26.05;;;16.98;;
22270;SDS011;11304;53.520;10.104;2022-10-15T04:39:37;27.17;;;17.30;;
22270;SDS011;11304;53.520;10.104;2022-10-15T04:42:03;25.95;;;16.23;;
22270;SDS011;11304;53.520;10.104;2022-10-15T04:44:29;23.15;;;16.13;;
22270;SDS011;11304;53.520;10.104;2022-10-15T04:46:54;20.27;;;15.45;;
22270;SDS011;11304;53.520;10.104;2022-10-15T04:49:20;25.33;;;16.67;;
22270;SDS011;11304;53.520;10.104;2022-10-15T04:51:46;24.73;;;17.75;;
22270;SDS011;11304;53.520;10.104;2022-10-15T04:54:12;26.90;;;19.52;;
22270;SDS011;11304;53.520;10.104;2022-10-15T04:56:37;26.15;;;17.75;;
22270;SDS011;11304;53.520;10.104;2022-10-15T04:59:05;27.38;;;18.35;;
22270;SDS011;11304;53.520;10.104;2022-10-15T05:01:32;24.45;;;17.02;;
22270;SDS011;11304;53.520;10.104;2022-10-15T05:03:57;27.17;;;19.23;;
22270;SDS011;11304;53.520;10.104;2022-10-15T05:06:23;30.05;;;19.55;;
22270;SDS011;11304;53.520;10.104;2022-10-15T05:08:49;31.38;;;20.48;;
22270;SDS011;11304;53.520;10.104;2022-10-15T05:11:19;35.08;;;21.30;;
22270;SDS011;11304;53.520;10.104;2022-10-15T05:13:46;30.73;;;20.48;;
22270;SDS011;11304;53.520;10.104;2022-10-15T05:16:19;33.17;;;21.75;;
22270;SDS011;11304;53.520;10.104;2022-10-15T05:18:47;31.63;;;21.33;;
22270;SDS011;11304;53.520;10.104;2022-10-15T05:21:14;35.85;;;22.52;;
22270;SDS011;11304;53.520;10.104;2022-10-15T05:23:41;31.23;;;22.30;;
22270;SDS011;11304;53.520;10.104;2022-10-15T05:26:11;34.42;;;23.08;;
22270;SDS011;11304;53.520;10.104;2022-10-15T05:28:39;36.30;;;23.33;;
22270;SDS011;11304;53.520;10.104;2022-10-15T05:31:05;35.55;;;21.80;;
22270;SDS011;11304;53.520;10.104;2022-10-15T05:33:32;31.15;;;21.45;;
22270;SDS011;11304;53.520;10.104;2022-10-15T05:36:11;35.28;;;23.08;;
22270;SDS011;11304;53.520;10.104;2022-10-15T05:38:41;32.05;;;20.67;;
22270;SDS011;11304;53.520;10.104;2022-10-15T05:41:11;34.50;;;21.40;;
22270;SDS011;11304;53.520;10.104;2022-10-15T05:43:36;31.60;;;21.10;;
22270;SDS011;11304;53.520;10.104;2022-10-15T05:46:02;29.38;;;20.17;;
22270;SDS011;11304;53.520;10.104;2022-10-15T05:48:28;31.85;;;20.42;;
22270;SDS011;11304;53.520;10.104;2022-10-15T05:50:59;31.50;;;20.73;;
22270;SDS011;11304;53.520;10.104;2022-10-15T05:53:28;33.47;;;20.80;;
22270;SDS011;11304;53.520;10.104;2022-10-15T05:55:54;33.97;;;20.95;;
22270;SDS011;11304;53.520;10.104;2022-10-15T05:58:20;35.47;;;21.23;;
22270;SDS011;11304;53.520;10.104;2022-10-15T06:00:55;38.45;;;24.05;;
22270;SDS011;11304;53.520;10.104;2022-10-15T06:03:22;35.28;;;22.45;;
22270;SDS011;11304;53.520;10.104;2022-10-15T06:05:49;31.85;;;21.33;;
22270;SDS011;11304;53.520;10.104;2022-10-15T06:08:15;34.22;;;22.88;;
22270;SDS011;11304;53.520;10.104;2022-10-15T06:10:40;33.80;;;22.95;;
22270;SDS011;11304;53.520;10.104;2022-10-15T06:13:07;36.70;;;24.33;;
22270;SDS011;11304;53.520;10.104;2022-10-15T06:15:33;32.42;;;20.95;;
22270;SDS011;11304;53.520;10.104;2022-10-15T06:17:59;31.73;;;21.65;;
22270;SDS011;11304;53.520;10.104;2022-10-15T06:20:25;30.08;;;21.05;;
22270;SDS011;11304;53.520;10.104;2022-10-15T06:22:55;36.47;;;24.08;;
22270;SDS011;11304;53.520;10.104;2022-10-15T06:25:24;34.28;;;22.40;;
22270;SDS011;11304;53.520;10.104;2022-10-15T06:27:50;35.70;;;24.00;;
22270;SDS011;11304;53.520;10.104;2022-10-15T06:30:17;34.17;;;22.65;;
22270;SDS011;11304;53.520;10.104;2022-10-15T06:32:49;31.63;;;21.23;;
22270;SDS011;11304;53.520;10.104;2022-10-15T06:35:16;31.58;;;21.15;;
22270;SDS011;11304;53.520;10.104;2022-10-15T06:37:43;42.10;;;24.27;;
22270;SDS011;11304;53.520;10.104;2022-10-15T06:40:09;36.25;;;25.80;;
22270;SDS011;11304;53.520;10.104;2022-10-15T06:42:36;43.92;;;26.58;;
22270;SDS011;11304;53.520;10.104;2022-10-15T06:45:01;45.50;;;26.30;;
22270;SDS011;11304;53.520;10.104;2022-10-15T06:47:28;49.00;;;27.33;;
22270;SDS011;11304;53.520;10.104;2022-10-15T06:49:53;42.15;;;26.48;;
22270;SDS011;11304;53.520;10.104;2022-10-15T06:52:19;45.03;;;27.30;;
22270;SDS011;11304;53.520;10.104;2022-10-15T06:54:45;43.47;;;26.45;;
22270;SDS011;11304;53.520;10.104;2022-10-15T06:57:10;40.55;;;27.17;;
22270;SDS011;11304;53.520;10.104;2022-10-15T06:59:36;45.30;;;28.35;;
22270;SDS011;11304;53.520;10.104;2022-10-15T07:02:02;47.80;;;28.60;;
22270;SDS011;11304;53.520;10.104;2022-10-15T07:04:28;48.25;;;28.65;;
22270;SDS011;11304;53.520;10.104;2022-10-15T07:06:53;39.85;;;27.63;;
22270;SDS011;11304;53.520;10.104;2022-10-15T07:09:19;42.85;;;28.20;;
22270;SDS011;11304;53.520;10.104;2022-10-15T07:11:45;41.83;;;27.33;;
22270;SDS011;11304;53.520;10.104;2022-10-15T07:14:10;41.65;;;26.70;;
22270;SDS011;11304;53.520;10.104;2022-10-15T07:16:36;40.65;;;26.20;;
22270;SDS011;11304;53.520;10.104;2022-10-15T07:19:03;41.47;;;27.95;;
22270;SDS011;11304;53.520;10.104;2022-10-15T07:21:29;39.20;;;25.35;;
22270;SDS011;11304;53.520;10.104;2022-10-15T07:23:55;37.15;;;26.13;;
22270;SDS011;11304;53.520;10.104;2022-10-15T07:26:21;42.35;;;27.73;;
22270;SDS011;11304;53.520;10.104;2022-10-15T07:28:46;40.35;;;25.45;;
22270;SDS011;11304;53.520;10.104;2022-10-15T07:31:13;44.22;;;27.35;;
22270;SDS011;11304;53.520;10.104;2022-10-15T07:33:40;39.38;;;26.45;;
22270;SDS011;11304;53.520;10.104;2022-10-15T07:36:08;40.95;;;27.33;;
22270;SDS011;11304;53.520;10.104;2022-10-15T07:38:36;40.38;;;26.70;;
22270;SDS011;11304;53.520;10.104;2022-10-15T07:41:04;37.70;;;26.05;;
22270;SDS011;11304;53.520;10.104;2022-10-15T07:43:32;42.17;;;27.70;;
22270;SDS011;11304;53.520;10.104;2022-10-15T07:45:58;41.22;;;26.70;;
22270;SDS011;11304;53.520;10.104;2022-10-15T07:48:24;38.15;;;24.23;;
22270;SDS011;11304;53.520;10.104;2022-10-15T07:50:54;36.58;;;24.45;;
22270;SDS011;11304;53.520;10.104;2022-10-15T07:53:21;37.67;;;25.52;;
22270;SDS011;11304;53.520;10.104;2022-10-15T07:55:47;35.95;;;26.00;;
22270;SDS011;11304;53.520;10.104;2022-10-15T07:58:13;38.05;;;26.02;;
22270;SDS011;11304;53.520;10.104;2022-10-15T08:00:39;40.50;;;26.55;;
22270;SDS011;11304;53.520;10.104;2022-10-15T08:03:04;45.35;;;26.30;;
22270;SDS011;11304;53.520;10.104;2022-10-15T08:05:30;37.70;;;24.45;;
22270;SDS011;11304;53.520;10.104;2022-10-15T08:07:56;41.28;;;26.30;;
22270;SDS011;11304;53.520;10.104;2022-10-15T08:10:22;38.40;;;24.77;;
22270;SDS011;11304;53.520;10.104;2022-10-15T08:12:48;34.42;;;24.10;;
22270;SDS011;11304;53.520;10.104;2022-10-15T08:15:13;36.78;;;23.58;;
22270;SDS011;11304;53.520;10.104;2022-10-15T08:17:39;33.05;;;22.95;;
22270;SDS011;11304;53.520;10.104;2022-10-15T08:20:05;34.28;;;23.27;;
22270;SDS011;11304;53.520;10.104;2022-10-15T08:22:32;33.58;;;22.63;;
22270;SDS011;11304;53.520;10.104;2022-10-15T08:24:58;34.85;;;24.73;;
22270;SDS011;11304;53.520;10.104;2022-10-15T08:27:23;37.15;;;23.80;;
22270;SDS011;11304;53.520;10.104;2022-10-15T08:29:50;33.20;;;21.63;;
22270;SDS011;11304;53.520;10.104;2022-10-15T08:32:15;32.72;;;22.13;;
22270;SDS011;11304;53.520;10.104;2022-10-15T08:34:41;32.97;;;24.08;;
22270;SDS011;11304;53.520;10.104;2022-10-15T08:37:07;33.63;;;21.98;;
22270;SDS011;11304;53.520;10.104;2022-10-15T08:39:32;37.28;;;23.48;;
22270;SDS011;11304;53.520;10.104;2022-10-15T08:42:00;32.75;;;22.95;;
22270;SDS011;11304;53.520;10.104;2022-10-15T08:44:43;36.35;;;23.63;;
22270;SDS011;11304;53.520;10.104;2022-10-15T08:49:52;34.22;;;21.20;;
22270;SDS011;11304;53.520;10.104;2022-10-15T08:54:49;30.17;;;20.33;;
22270;SDS011;11304;53.520;10.104;2022-10-15T09:00:00;29.90;;;20.45;;
22270;SDS011;11304;53.520;10.104;2022-10-15T09:11:53;28.20;;;19.35;;
22270;SDS011;11304;53.520;10.104;2022-10-15T09:14:11;28.58;;;20.85;;
22270;SDS011;11304;53.520;10.104;2022-10-15T09:16:40;30.17;;;21.80;;
22270;SDS011;11304;53.520;10.104;2022-10-15T09:19:21;28.63;;;20.40;;
22270;SDS011;11304;53.520;10.104;2022-10-15T09:21:49;28.75;;;19.75;;
22270;SDS011;11304;53.520;10.104;2022-10-15T09:24:20;30.02;;;19.67;;
22270;SDS011;11304;53.520;10.104;2022-10-15T09:26:53;27.35;;;19.75;;
22270;SDS011;11304;53.520;10.104;2022-10-15T09:35:18;23.92;;;18.02;;
22270;SDS011;11304;53.520;10.104;2022-10-15T09:40:26;25.35;;;18.58;;
22270;SDS011;11304;53.520;10.104;2022-10-15T09:42:59;25.33;;;17.48;;
22270;SDS011;11304;53.520;10.104;2022-10-15T09:45:26;23.30;;;17.15;;
22270;SDS011;11304;53.520;10.104;2022-10-15T09:47:53;27.48;;;19.00;;
22270;SDS011;11304;53.520;10.104;2022-10-15T09:50:25;26.55;;;17.42;;
22270;SDS011;11304;53.520;10.104;2022-10-15T09:55:57;26.23;;;17.65;;
22270;SDS011;11304;53.520;10.104;2022-10-15T09:58:38;24.52;;;16.50;;
22270;SDS011;11304;53.520;10.104;2022-10-15T10:01:22;24.05;;;16.90;;
22270;SDS011;11304;53.520;10.104;2022-10-15T10:03:51;24.50;;;16.48;;
22270;SDS011;11304;53.520;10.104;2022-10-15T10:06:19;24.65;;;16.42;;
22270;SDS011;11304;53.520;10.104;2022-10-15T10:11:22;22.02;;;15.23;;
22270;SDS011;11304;53.520;10.104;2022-10-15T10:13:55;24.75;;;17.30;;
22270;SDS011;11304;53.520;10.104;2022-10-15T10:16:23;21.55;;;16.63;;
22270;SDS011;11304;53.520;10.104;2022-10-15T10:19:11;21.80;;;15.15;;
22270;SDS011;11304;53.520;10.104;2022-10-15T10:21:38;20.63;;;15.07;;
22270;SDS011;11304;53.520;10.104;2022-10-15T10:26:58;21.52;;;14.85;;
22270;SDS011;11304;53.520;10.104;2022-10-15T10:29:26;22.08;;;13.38;;
22270;SDS011;11304;53.520;10.104;2022-10-15T10:31:53;22.00;;;13.52;;
22270;SDS011;11304;53.520;10.104;2022-10-15T10:34:28;18.90;;;12.13;;
22270;SDS011;11304;53.520;10.104;2022-10-15T10:36:55;15.85;;;11.63;;
22270;SDS011;11304;53.520;10.104;2022-10-15T10:39:31;15.90;;;11.60;;
22270;SDS011;11304;53.520;10.104;2022-10-15T10:41:59;13.23;;;10.38;;
22270;SDS011;11304;53.520;10.104;2022-10-15T10:44:36;13.10;;;9.85;;
22270;SDS011;11304;53.520;10.104;2022-10-15T10:49:33;17.13;;;12.30;;
22270;SDS011;11304;53.520;10.104;2022-10-15T10:52:05;16.27;;;11.27;;
22270;SDS011;11304;53.520;10.104;2022-10-15T10:54:42;14.10;;;9.38;;
22270;SDS011;11304;53.520;10.104;2022-10-15T10:57:09;14.38;;;10.40;;
22270;SDS011;11304;53.520;10.104;2022-10-15T10:59:49;15.60;;;9.50;;
22270;SDS011;11304;53.520;10.104;2022-10-15T11:02:16;14.05;;;9.82;;
22270;SDS011;11304;53.520;10.104;2022-10-15T11:04:42;14.77;;;10.18;;
22270;SDS011;11304;53.520;10.104;2022-10-15T11:07:09;18.88;;;11.30;;
22270;SDS011;11304;53.520;10.104;2022-10-15T11:09:54;13.63;;;8.80;;
22270;SDS011;11304;53.520;10.104;2022-10-15T11:17:56;12.00;;;6.90;;
22270;SDS011;11304;53.520;10.104;2022-10-15T11:23:40;8.43;;;5.57;;
22270;SDS011;11304;53.520;10.104;2022-10-15T11:31:51;9.80;;;4.78;;
22270;SDS011;11304;53.520;10.104;2022-10-15T11:42:50;7.93;;;3.03;;
22270;SDS011;11304;53.520;10.104;2022-10-15T11:51:17;4.45;;;1.98;;
22270;SDS011;11304;53.520;10.104;2022-10-15T11:53:43;8.05;;;3.20;;
22270;SDS011;11304;53.520;10.104;2022-10-15T11:56:25;6.95;;;2.75;;
22270;SDS011;11304;53.520;10.104;2022-10-15T11:58:55;5.95;;;3.03;;
22270;SDS011;11304;53.520;10.104;2022-10-15T12:01:58;8.13;;;3.72;;
22270;SDS011;11304;53.520;10.104;2022-10-15T12:04:23;8.07;;;4.60;;
22270;SDS011;11304;53.520;10.104;2022-10-15T12:07:00;6.00;;;3.20;;
22270;SDS011;11304;53.520;10.104;2022-10-15T12:12:06;9.60;;;3.33;;
22270;SDS011;11304;53.520;10.104;2022-10-15T12:14:45;6.68;;;2.75;;
22270;SDS011;11304;53.520;10.104;2022-10-15T12:17:47;4.82;;;2.45;;
22270;SDS011;11304;53.520;10.104;2022-10-15T12:20:24;7.32;;;3.05;;
22270;SDS011;11304;53.520;10.104;2022-10-15T12:30:33;7.32;;;3.53;;
22270;SDS011;11304;53.520;10.104;2022-10-15T12:33:02;6.40;;;3.42;;
22270;SDS011;11304;53.520;10.104;2022-10-15T12:35:51;4.57;;;2.92;;
22270;SDS011;11304;53.520;10.104;2022-10-15T12:40:55;6.35;;;3.40;;
22270;SDS011;11304;53.520;10.104;2022-10-15T12:43:22;4.63;;;2.80;;
22270;SDS011;11304;53.520;10.104;2022-10-15T12:45:53;7.03;;;2.80;;
22270;SDS011;11304;53.520;10.104;2022-10-15T12:48:33;4.65;;;2.80;;
22270;SDS011;11304;53.520;10.104;2022-10-15T12:53:44;5.50;;;3.17;;
22270;SDS011;11304;53.520;10.104;2022-10-15T12:58:40;11.23;;;5.30;;
22270;SDS011;11304;53.520;10.104;2022-10-15T13:01:27;5.47;;;2.30;;
22270;SDS011;11304;53.520;10.104;2022-10-15T13:04:13;5.30;;;2.67;;
22270;SDS011;11304;53.520;10.104;2022-10-15T13:06:39;6.30;;;2.60;;
22270;SDS011;11304;53.520;10.104;2022-10-15T13:11:48;6.13;;;2.70;;
22270;SDS011;11304;53.520;10.104;2022-10-15T13:16:50;4.22;;;3.00;;
22270;SDS011;11304;53.520;10.104;2022-10-15T13:19:35;3.53;;;2.53;;
22270;SDS011;11304;53.520;10.104;2022-10-15T13:22:20;5.20;;;3.15;;
22270;SDS011;11304;53.520;10.104;2022-10-15T13:24:50;6.30;;;3.47;;
22270;SDS011;11304;53.520;10.104;2022-10-15T13:27:22;5.07;;;3.40;;
22270;SDS011;11304;53.520;10.104;2022-10-15T13:29:53;5.53;;;3.25;;
22270;SDS011;11304;53.520;10.104;2022-10-15T13:34:47;5.03;;;3.78;;
22270;SDS011;11304;53.520;10.104;2022-10-15T13:37:16;6.55;;;3.40;;
22270;SDS011;11304;53.520;10.104;2022-10-15T13:39:48;6.45;;;3.97;;
22270;SDS011;11304;53.520;10.104;2022-10-15T13:45:01;5.88;;;4.35;;
22270;SDS011;11304;53.520;10.104;2022-10-15T13:47:41;9.25;;;4.70;;
22270;SDS011;11304;53.520;10.104;2022-10-15T13:55:39;6.03;;;4.55;;
22270;SDS011;11304;53.520;10.104;2022-10-15T13:58:20;8.95;;;5.82;;
22270;SDS011;11304;53.520;10.104;2022-10-15T14:01:14;8.60;;;6.60;;
22270;SDS011;11304;53.520;10.104;2022-10-15T14:03:50;8.68;;;6.30;;
22270;SDS011;11304;53.520;10.104;2022-10-15T14:06:33;10.05;;;7.50;;
22270;SDS011;11304;53.520;10.104;2022-10-15T14:09:18;10.50;;;6.28;;
22270;SDS011;11304;53.520;10.104;2022-10-15T14:11:50;12.48;;;7.68;;
22270;SDS011;11304;53.520;10.104;2022-10-15T14:14:33;8.90;;;6.90;;
22270;SDS011;11304;53.520;10.104;2022-10-15T14:17:25;12.43;;;7.45;;
22270;SDS011;11304;53.520;10.104;2022-10-15T14:19:59;10.18;;;7.70;;
22270;SDS011;11304;53.520;10.104;2022-10-15T14:22:28;10.65;;;8.77;;
22270;SDS011;11304;53.520;10.104;2022-10-15T14:24:54;12.73;;;9.10;;
22270;SDS011;11304;53.520;10.104;2022-10-15T14:27:24;13.20;;;10.10;;
22270;SDS011;11304;53.520;10.104;2022-10-15T14:29:52;17.05;;;12.00;;
22270;SDS011;11304;53.520;10.104;2022-10-15T14:32:24;14.65;;;12.52;;
22270;SDS011;11304;53.520;10.104;2022-10-15T14:34:52;13.02;;;11.27;;
22270;SDS011;11304;53.520;10.104;2022-10-15T14:47:52;13.15;;;11.65;;
22270;SDS011;11304;53.520;10.104;2022-10-15T14:50:25;12.00;;;10.50;;
22270;SDS011;11304;53.520;10.104;2022-10-15T14:52:54;12.75;;;10.95;;
22270;SDS011;11304;53.520;10.104;2022-10-15T14:57:48;13.55;;;10.70;;
22270;SDS011;11304;53.520;10.104;2022-10-15T15:00:18;12.18;;;10.88;;
22270;SDS011;11304;53.520;10.104;2022-10-15T15:02:54;14.85;;;11.43;;
22270;SDS011;11304;53.520;10.104;2022-10-15T15:05:22;14.43;;;12.07;;
22270;SDS011;11304;53.520;10.104;2022-10-15T15:07:52;14.75;;;10.73;;
22270;SDS011;11304;53.520;10.104;2022-10-15T15:10:18;13.48;;;12.00;;
22270;SDS011;11304;53.520;10.104;2022-10-15T15:12:46;11.25;;;10.13;;
22270;SDS011;11304;53.520;10.104;2022-10-15T15:15:16;12.30;;;10.43;;
22270;SDS011;11304;53.520;10.104;2022-10-15T15:17:43;11.77;;;10.13;;
22270;SDS011;11304;53.520;10.104;2022-10-15T15:20:09;14.15;;;10.68;;
22270;SDS011;11304;53.520;10.104;2022-10-15T15:22:36;13.90;;;11.25;;
22270;SDS011;11304;53.520;10.104;2022-10-15T15:25:05;15.02;;;13.57;;
22270;SDS011;11304;53.520;10.104;2022-10-15T15:27:39;67.82;;;56.78;;
22270;SDS011;11304;53.520;10.104;2022-10-15T15:30:05;20.08;;;17.48;;
22270;SDS011;11304;53.520;10.104;2022-10-15T15:32:32;14.43;;;13.02;;
22270;SDS011;11304;53.520;10.104;2022-10-15T15:34:58;12.25;;;11.00;;
22270;SDS011;11304;53.520;10.104;2022-10-15T15:37:25;13.90;;;10.88;;
22270;SDS011;11304;53.520;10.104;2022-10-15T15:39:51;15.07;;;12.02;;
22270;SDS011;11304;53.520;10.104;2022-10-15T15:42:21;11.75;;;10.57;;
22270;SDS011;11304;53.520;10.104;2022-10-15T15:44:48;12.65;;;11.45;;
22270;SDS011;11304;53.520;10.104;2022-10-15T15:47:14;12.77;;;11.48;;
22270;SDS011;11304;53.520;10.104;2022-10-15T15:49:40;13.65;;;11.98;;
22270;SDS011;11304;53.520;10.104;2022-10-15T15:52:07;13.98;;;10.95;;
22270;SDS011;11304;53.520;10.104;2022-10-15T15:54:41;13.52;;;12.13;;
22270;SDS011;11304;53.520;10.104;2022-10-15T15:57:07;13.20;;;11.77;;
22270;SDS011;11304;53.520;10.104;2022-10-15T15:59:33;13.23;;;11.82;;
22270;SDS011;11304;53.520;10.104;2022-10-15T16:01:59;15.82;;;12.73;;
22270;SDS011;11304;53.520;10.104;2022-10-15T16:04:25;13.52;;;11.27;;
22270;SDS011;11304;53.520;10.104;2022-10-15T16:06:51;13.32;;;12.00;;
22270;SDS011;11304;53.520;10.104;2022-10-15T16:09:17;14.95;;;13.18;;
22270;SDS011;11304;53.520;10.104;2022-10-15T16:11:44;13.23;;;11.82;;
22270;SDS011;11304;53.520;10.104;2022-10-15T16:14:10;13.30;;;11.90;;
22270;SDS011;11304;53.520;10.104;2022-10-15T16:16:35;13.02;;;11.73;;
22270;SDS011;11304;53.520;10.104;2022-10-15T16:19:02;12.75;;;11.48;;
22270;SDS011;11304;53.520;10.104;2022-10-15T16:21:28;13.80;;;11.48;;
22270;SDS011;11304;53.520;10.104;2022-10-15T16:23:54;13.65;;;12.15;;
22270;SDS011;11304;53.520;10.104;2022-10-15T16:26:20;12.65;;;11.07;;
22270;SDS011;11304;53.520;10.104;2022-10-15T16:28:46;13.25;;;11.85;;
22270;SDS011;11304;53.520;10.104;2022-10-15T16:33:47;10.45;;;9.35;;
22270;SDS011;11304;53.520;10.104;2022-10-15T16:36:14;11.30;;;8.60;;
22270;SDS011;11304;53.520;10.104;2022-10-15T16:38:40;11.15;;;9.68;;
22270;SDS011;11304;53.520;10.104;2022-10-15T16:41:10;12.27;;;9.50;;
22270;SDS011;11304;53.520;10.104;2022-10-15T16:43:37;9.45;;;8.55;;
22270;SDS011;11304;53.520;10.104;2022-10-15T16:46:04;10.13;;;8.40;;
22270;SDS011;11304;53.520;10.104;2022-10-15T16:48:30;9.82;;;8.50;;
22270;SDS011;11304;53.520;10.104;2022-10-15T16:51:04;9.15;;;8.00;;
22270;SDS011;11304;53.520;10.104;2022-10-15T16:53:36;9.27;;;8.30;;